createdAt,value
2024-03-02T00:00:47.979Z,69.81
2024-03-02T00:01:50.144Z,69.96
2024-03-02T00:02:52.489Z,70.08
2024-03-02T00:03:54.757Z,69.91
2024-03-02T00:04:57.103Z,70.14
2024-03-02T00:05:59.242Z,70.01
2024-03-02T00:07:01.333Z,70.15
2024-03-02T00:08:06.429Z,70.17
2024-03-02T00:09:10.503Z,70.09
2024-03-02T00:10:15.678Z,70.16
2024-03-02T00:11:18.059Z,69.90
2024-03-02T00:12:21.748Z,70.38
2024-03-02T00:13:24.359Z,70.04
2024-03-02T00:14:26.671Z,70.43
2024-03-02T00:15:53.763Z,70.54
2024-03-02T00:16:57.681Z,70.67
2024-03-02T00:18:00.294Z,70.20
2024-03-02T00:19:07.423Z,70.39
2024-03-02T00:20:11.167Z,70.44
2024-03-02T00:21:16.155Z,70.46
2024-03-02T00:22:18.272Z,70.64
2024-03-02T00:23:21.748Z,70.59
2024-03-02T00:24:34.280Z,70.64
2024-03-02T00:25:40.491Z,70.42
2024-03-02T00:26:46.197Z,70.65
2024-03-02T00:27:51.246Z,70.57
2024-03-02T00:28:58.580Z,70.43
2024-03-02T00:30:02.871Z,70.55
2024-03-02T00:31:06.459Z,70.55
2024-03-02T00:32:17.737Z,70.46
2024-03-02T00:33:21.419Z,71.04
2024-03-02T00:34:24.042Z,70.54
2024-03-02T00:35:26.094Z,70.61
2024-03-02T00:36:28.677Z,70.41
2024-03-02T00:37:31.181Z,70.09
2024-03-02T00:38:34.186Z,70.38
2024-03-02T00:39:36.949Z,70.17
2024-03-02T00:40:39.085Z,70.28
2024-03-02T00:41:45.818Z,70.36
2024-03-02T00:42:48.047Z,70.65
2024-03-02T00:43:56.761Z,70.34
2024-03-02T00:44:59.452Z,70.60
2024-03-02T00:46:01.952Z,70.39
2024-03-02T00:47:04.370Z,70.26
2024-03-02T00:48:06.985Z,70.18
2024-03-02T00:49:14.795Z,70.02
2024-03-02T00:50:23.559Z,70.34
2024-03-02T00:51:34.176Z,70.47
2024-03-02T00:52:37.150Z,70.46
2024-03-02T00:53:39.471Z,71.11
2024-03-02T00:54:41.483Z,70.45
2024-03-02T00:55:48.636Z,70.84
2024-03-02T00:56:51.431Z,71.30
2024-03-02T00:57:53.617Z,70.91
2024-03-02T00:58:55.710Z,71.29
2024-03-02T00:59:58.076Z,70.94
2024-03-02T01:01:00.108Z,71.03
2024-03-02T01:02:02.807Z,70.43
2024-03-02T01:03:05.297Z,71.15
2024-03-02T01:04:07.496Z,71.35
2024-03-02T01:05:09.498Z,71.59
2024-03-02T01:06:11.704Z,71.42
2024-03-02T01:07:13.646Z,71.49
2024-03-02T01:08:16.146Z,71.09
2024-03-02T01:09:19.596Z,71.64
2024-03-02T01:10:21.791Z,71.27
2024-03-02T01:11:24.320Z,71.56
2024-03-02T01:12:26.861Z,71.06
2024-03-02T01:13:28.960Z,71.33
2024-03-02T01:14:31.065Z,70.95
2024-03-02T01:15:34.427Z,71.57
2024-03-02T01:16:36.532Z,70.98
2024-03-02T01:17:38.534Z,71.48
2024-03-02T01:18:40.977Z,71.04
2024-03-02T01:19:43.472Z,71.27
2024-03-02T01:20:45.827Z,71.50
2024-03-02T01:21:47.936Z,71.50
2024-03-02T01:22:50.060Z,71.74
2024-03-02T01:23:52.004Z,71.33
2024-03-02T01:24:54.482Z,71.87
2024-03-02T01:25:56.888Z,71.94
2024-03-02T01:26:59.146Z,71.93
2024-03-02T01:28:01.288Z,71.93
2024-03-02T01:29:03.539Z,71.60
2024-03-02T01:30:06.365Z,71.43
2024-03-02T01:31:08.806Z,71.49
2024-03-02T01:32:10.759Z,71.38
2024-03-02T01:33:13.062Z,71.34
2024-03-02T01:34:15.198Z,71.74
2024-03-02T01:35:17.341Z,71.48
2024-03-02T01:36:19.840Z,71.40
2024-03-02T01:37:22.077Z,71.25
2024-03-02T01:38:24.131Z,71.39
2024-03-02T01:39:26.248Z,71.88
2024-03-02T01:40:28.652Z,71.71
2024-03-02T01:41:30.916Z,71.86
2024-03-02T01:42:32.894Z,72.03
2024-03-02T01:43:36.392Z,72.17
2024-03-02T01:44:39.456Z,71.68
2024-03-02T01:45:41.820Z,71.86
2024-03-02T01:46:44.025Z,72.20
2024-03-02T01:47:46.145Z,72.01
2024-03-02T01:48:49.114Z,72.17
2024-03-02T01:49:52.044Z,71.88
2024-03-02T01:50:54.202Z,72.24
2024-03-02T01:51:56.253Z,72.44
2024-03-02T01:52:59.030Z,72.39
2024-03-02T01:54:01.136Z,72.58
2024-03-02T01:55:03.302Z,72.50
2024-03-02T01:56:06.017Z,72.37
2024-03-02T01:57:08.173Z,72.68
2024-03-02T01:58:10.654Z,72.23
2024-03-02T01:59:14.342Z,72.41
2024-03-02T02:00:17.194Z,71.91
2024-03-02T02:01:19.477Z,72.70
2024-03-02T02:02:21.918Z,73.06
2024-03-02T02:03:23.959Z,72.89
2024-03-02T02:04:29.129Z,73.17
2024-03-02T02:05:31.401Z,73.07
2024-03-02T02:06:34.480Z,73.37
2024-03-02T02:07:36.917Z,73.31
2024-03-02T02:08:39.220Z,73.22
2024-03-02T02:09:44.617Z,73.21
2024-03-02T02:10:46.774Z,73.40
2024-03-02T02:11:49.007Z,73.48
2024-03-02T02:12:51.311Z,73.35
2024-03-02T02:13:53.325Z,73.88
2024-03-02T02:14:55.659Z,73.31
2024-03-02T02:16:06.468Z,73.34
2024-03-02T02:17:08.902Z,73.69
2024-03-02T02:18:11.168Z,73.49
2024-03-02T02:19:13.193Z,74.50
2024-03-02T02:20:15.268Z,74.66
2024-03-02T02:21:17.394Z,74.88
2024-03-02T02:22:19.498Z,74.93
2024-03-02T02:23:21.804Z,75.39
2024-03-02T02:24:23.913Z,75.39
2024-03-02T02:25:26.400Z,75.72
2024-03-02T02:26:28.385Z,76.40
2024-03-02T02:27:32.073Z,76.21
2024-03-02T02:28:34.023Z,76.16
2024-03-02T02:29:36.265Z,75.77
2024-03-02T02:30:38.354Z,75.54
2024-03-02T02:31:42.324Z,75.83
2024-03-02T02:32:44.220Z,75.60
2024-03-02T02:33:46.406Z,75.65
2024-03-02T02:34:53.231Z,75.64
2024-03-02T02:35:55.182Z,75.74
2024-03-02T02:36:57.536Z,75.58
2024-03-02T02:38:02.553Z,75.75
2024-03-02T02:39:06.639Z,75.54
2024-03-02T02:40:10.290Z,75.75
2024-03-02T02:41:12.297Z,75.17
2024-03-02T02:42:14.357Z,75.09
2024-03-02T02:43:16.590Z,75.09
2024-03-02T02:44:18.686Z,74.81
2024-03-02T02:45:20.987Z,74.71
2024-03-02T02:46:23.141Z,74.76
2024-03-02T02:47:25.388Z,74.93
2024-03-02T02:48:27.403Z,74.27
2024-03-02T02:49:29.559Z,74.07
2024-03-02T02:50:31.526Z,73.95
2024-03-02T02:51:33.811Z,73.58
2024-03-02T02:52:37.899Z,73.69
2024-03-02T02:53:41.910Z,73.43
2024-03-02T02:54:43.936Z,73.24
2024-03-02T02:55:46.161Z,73.55
2024-03-02T02:56:48.206Z,73.57
2024-03-02T02:57:50.345Z,73.84
2024-03-02T02:58:52.740Z,73.48
2024-03-02T02:59:54.874Z,73.39
2024-03-02T03:00:58.078Z,73.34
2024-03-02T03:02:00.515Z,72.93
2024-03-02T03:03:02.423Z,72.70
2024-03-02T03:04:04.787Z,72.79
2024-03-02T03:05:07.612Z,72.85
2024-03-02T03:06:09.676Z,73.04
2024-03-02T03:07:11.642Z,72.85
2024-03-02T03:08:13.766Z,73.02
2024-03-02T03:09:15.825Z,72.96
2024-03-02T03:10:18.673Z,72.90
2024-03-02T03:11:20.849Z,73.06
2024-03-02T03:12:22.979Z,73.23
2024-03-02T03:13:25.013Z,72.99
2024-03-02T03:14:27.244Z,72.77
2024-03-02T03:15:29.249Z,72.63
2024-03-02T03:16:31.349Z,72.93
2024-03-02T03:17:33.651Z,72.81
2024-03-02T03:18:35.820Z,72.76
2024-03-02T03:19:40.002Z,73.00
2024-03-02T03:20:42.177Z,73.00
2024-03-02T03:21:45.325Z,73.24
2024-03-02T03:22:47.449Z,72.77
2024-03-02T03:23:49.564Z,72.79
2024-03-02T03:24:51.786Z,72.81
2024-03-02T03:25:53.786Z,73.24
2024-03-02T03:26:55.958Z,72.93
2024-03-02T03:27:58.660Z,73.29
2024-03-02T03:29:00.942Z,73.20
2024-03-02T03:30:03.957Z,73.28
2024-03-02T03:31:06.795Z,73.15
2024-03-02T03:32:09.727Z,73.23
2024-03-02T03:33:12.072Z,73.32
2024-03-02T03:34:17.102Z,73.26
2024-03-02T03:35:19.898Z,73.13
2024-03-02T03:36:22.022Z,73.11
2024-03-02T03:37:25.284Z,73.28
2024-03-02T03:38:27.319Z,72.92
2024-03-02T03:39:32.270Z,72.96
2024-03-02T03:40:34.354Z,73.39
2024-03-02T03:41:36.838Z,73.27
2024-03-02T03:42:40.172Z,73.38
2024-03-02T03:43:42.548Z,73.67
2024-03-02T03:44:44.559Z,73.38
2024-03-02T03:45:46.888Z,73.42
2024-03-02T03:46:48.843Z,73.04
2024-03-02T03:47:51.065Z,73.57
2024-03-02T03:48:53.346Z,73.29
2024-03-02T03:49:55.486Z,73.50
2024-03-02T03:50:58.322Z,73.44
2024-03-02T03:52:00.619Z,73.82
2024-03-02T03:53:02.631Z,73.67
2024-03-02T03:54:04.701Z,73.47
2024-03-02T03:55:07.353Z,73.31
2024-03-02T03:56:09.857Z,73.87
2024-03-02T03:57:11.919Z,73.56
2024-03-02T03:58:14.862Z,74.18
2024-03-02T03:59:16.831Z,74.01
2024-03-02T04:00:19.124Z,74.12
2024-03-02T04:01:23.589Z,73.99
2024-03-02T04:02:26.099Z,74.36
2024-03-02T04:03:28.099Z,74.47
2024-03-02T04:04:30.407Z,75.11
2024-03-02T04:05:32.447Z,75.18
2024-03-02T04:06:34.573Z,75.43
2024-03-02T04:07:44.577Z,75.38
2024-03-02T04:08:47.101Z,75.37
2024-03-02T04:09:49.277Z,75.58
2024-03-02T04:10:51.489Z,75.51
2024-03-02T04:11:53.520Z,75.51
2024-03-02T04:12:56.184Z,75.78
2024-03-02T04:13:59.142Z,75.39
2024-03-02T04:15:02.870Z,75.63
2024-03-02T04:16:06.278Z,75.05
2024-03-02T04:17:08.565Z,75.32
2024-03-02T04:18:10.739Z,75.10
2024-03-02T04:19:13.418Z,74.44
2024-03-02T04:20:15.661Z,74.52
2024-03-02T04:21:17.832Z,74.35
2024-03-02T04:22:25.078Z,73.75
2024-03-02T04:23:28.225Z,73.58
2024-03-02T04:24:30.179Z,73.63
2024-03-02T04:25:32.254Z,73.71
2024-03-02T04:26:34.339Z,73.90
2024-03-02T04:27:37.038Z,73.83
2024-03-02T04:28:39.228Z,73.88
2024-03-02T04:29:41.379Z,74.04
2024-03-02T04:30:43.516Z,73.81
2024-03-02T04:31:45.848Z,73.99
2024-03-02T04:32:49.116Z,74.04
2024-03-02T04:33:51.299Z,73.10
2024-03-02T04:34:53.321Z,73.56
2024-03-02T04:35:55.477Z,73.43
2024-03-02T04:36:57.618Z,73.20
2024-03-02T04:37:59.954Z,72.85
2024-03-02T04:39:02.036Z,72.67
2024-03-02T04:40:04.570Z,72.44
2024-03-02T04:41:09.595Z,72.55
2024-03-02T04:42:11.883Z,72.40
2024-03-02T04:43:17.710Z,72.59
2024-03-02T04:44:20.196Z,72.39
2024-03-02T04:45:22.448Z,72.30
2024-03-02T04:46:24.524Z,72.49
2024-03-02T04:47:26.589Z,71.90
2024-03-02T04:48:29.102Z,71.77
2024-03-02T04:49:31.685Z,71.46
2024-03-02T04:50:33.797Z,71.35
2024-03-02T04:51:35.930Z,71.26
2024-03-02T04:52:38.256Z,71.22
2024-03-02T04:53:40.251Z,70.39
2024-03-02T04:55:08.458Z,70.88
2024-03-02T04:56:29.022Z,70.44
2024-03-02T04:57:31.343Z,70.48
2024-03-02T04:58:33.602Z,70.21
2024-03-02T04:59:35.700Z,71.01
2024-03-02T05:00:37.832Z,70.76
2024-03-02T05:01:40.046Z,70.88
2024-03-02T05:02:42.076Z,71.00
2024-03-02T05:03:44.385Z,70.64
2024-03-02T05:04:46.662Z,70.51
2024-03-02T05:05:49.093Z,70.76
2024-03-02T05:06:54.347Z,70.46
2024-03-02T05:07:56.559Z,70.62
2024-03-02T05:08:58.609Z,70.41
2024-03-02T05:10:01.188Z,69.94
2024-03-02T05:11:23.428Z,70.03
2024-03-02T05:12:43.896Z,69.75
2024-03-02T05:13:46.087Z,69.58
2024-03-02T05:14:48.135Z,69.74
2024-03-02T05:15:50.653Z,69.71
2024-03-02T05:16:53.139Z,69.71
2024-03-02T05:17:55.343Z,69.09
2024-03-02T05:18:57.484Z,69.31
2024-03-02T05:19:59.872Z,69.01
2024-03-02T05:21:02.029Z,68.66
2024-03-02T05:22:04.542Z,68.58
2024-03-02T05:23:06.808Z,68.32
2024-03-02T05:24:08.869Z,67.79
2024-03-02T05:25:11.872Z,68.54
2024-03-02T05:26:14.195Z,67.92
2024-03-02T05:27:16.421Z,67.91
2024-03-02T05:28:18.855Z,67.54
2024-03-02T05:29:21.767Z,67.88
2024-03-02T05:30:23.913Z,67.47
2024-03-02T05:31:26.176Z,67.63
2024-03-02T05:32:28.619Z,67.20
2024-03-02T05:33:32.790Z,67.16
2024-03-02T05:34:37.262Z,66.32
2024-03-02T05:35:39.538Z,66.32
2024-03-02T05:36:41.554Z,66.19
2024-03-02T05:37:43.729Z,66.09
2024-03-02T05:38:45.757Z,65.74
2024-03-02T05:39:47.872Z,65.58
2024-03-02T05:40:50.192Z,65.54
2024-03-02T05:41:52.629Z,65.03
2024-03-02T05:42:54.728Z,65.04
2024-03-02T05:43:56.939Z,64.74
2024-03-02T05:44:58.862Z,64.20
2024-03-02T05:46:01.036Z,64.58
2024-03-02T05:47:04.502Z,64.41
2024-03-02T05:48:08.939Z,64.22
2024-03-02T05:49:11.533Z,63.92
2024-03-02T05:50:13.805Z,63.62
2024-03-02T05:51:15.896Z,64.30
2024-03-02T05:52:18.104Z,63.67
2024-03-02T05:53:20.164Z,63.85
2024-03-02T05:54:22.297Z,63.40
2024-03-02T05:55:24.301Z,63.09
2024-03-02T05:56:26.431Z,63.39
2024-03-02T05:58:00.865Z,62.64
2024-03-02T05:59:15.216Z,62.80
2024-03-02T06:00:18.735Z,62.54
2024-03-02T06:01:21.729Z,62.08
2024-03-02T06:02:23.922Z,61.95
2024-03-02T06:03:26.196Z,62.15
2024-03-02T06:04:28.140Z,62.07
2024-03-02T06:05:30.414Z,61.06
2024-03-02T06:06:34.877Z,61.23
2024-03-02T06:07:37.309Z,61.03
2024-03-02T06:08:39.708Z,60.54
2024-03-02T06:09:42.532Z,60.26
2024-03-02T06:10:44.883Z,60.45
2024-03-02T06:11:47.242Z,61.02
2024-03-02T06:12:49.396Z,60.69
2024-03-02T06:13:51.598Z,60.97
2024-03-02T06:14:53.675Z,60.58
2024-03-02T06:15:55.971Z,60.81
2024-03-02T06:16:58.080Z,60.20
2024-03-02T06:18:00.333Z,60.14
2024-03-02T06:19:03.146Z,60.24
2024-03-02T06:20:06.099Z,60.67
2024-03-02T06:21:08.280Z,60.91
2024-03-02T06:22:10.946Z,60.50
2024-03-02T06:23:12.921Z,60.52
2024-03-02T06:24:15.223Z,60.27
2024-03-02T06:25:17.183Z,60.07
2024-03-02T06:26:23.799Z,60.10
2024-03-02T06:27:27.802Z,59.66
2024-03-02T06:28:30.199Z,60.47
2024-03-02T06:29:35.157Z,59.71
2024-03-02T06:30:37.444Z,59.88
2024-03-02T06:31:39.461Z,59.63
2024-03-02T06:32:41.725Z,59.26
2024-03-02T06:33:43.932Z,59.79
2024-03-02T06:34:46.059Z,59.28
2024-03-02T06:35:48.145Z,58.79
2024-03-02T06:36:50.487Z,58.39
2024-03-02T06:37:52.557Z,58.21
2024-03-02T06:38:54.924Z,58.72
2024-03-02T06:39:57.154Z,58.41
2024-03-02T06:40:59.403Z,58.46
2024-03-02T06:42:01.778Z,57.98
2024-03-02T06:43:04.131Z,58.17
2024-03-02T06:44:07.777Z,58.30
2024-03-02T06:45:09.892Z,58.06
2024-03-02T06:46:15.894Z,58.01
2024-03-02T06:47:18.091Z,57.51
2024-03-02T06:48:24.432Z,58.06
2024-03-02T06:49:27.200Z,57.80
2024-03-02T06:50:29.899Z,58.40
2024-03-02T06:51:32.067Z,57.92
2024-03-02T06:52:34.153Z,57.90
2024-03-02T06:53:36.408Z,57.89
2024-03-02T06:54:38.503Z,57.64
2024-03-02T06:55:40.839Z,57.86
2024-03-02T06:56:42.822Z,58.33
2024-03-02T06:57:44.952Z,58.42
2024-03-02T06:58:47.021Z,57.88
2024-03-02T06:59:51.552Z,57.78
2024-03-02T07:00:54.269Z,57.61
2024-03-02T07:01:56.864Z,57.50
2024-03-02T07:02:59.666Z,57.38
2024-03-02T07:04:02.042Z,57.19
2024-03-02T07:05:05.153Z,56.43
2024-03-02T07:06:07.390Z,56.69
2024-03-02T07:07:09.512Z,56.28
2024-03-02T07:08:11.786Z,56.58
2024-03-02T07:09:13.937Z,56.37
2024-03-02T07:10:16.061Z,55.30
2024-03-02T07:11:18.329Z,55.29
2024-03-02T07:12:20.536Z,55.29
2024-03-02T07:13:22.535Z,55.26
2024-03-02T07:14:44.757Z,54.64
2024-03-02T07:15:46.730Z,54.33
2024-03-02T07:16:48.916Z,54.37
2024-03-02T07:17:51.183Z,55.27
2024-03-02T07:18:53.619Z,54.69
2024-03-02T07:19:55.742Z,55.29
2024-03-02T07:21:02.402Z,54.66
2024-03-02T07:22:07.844Z,54.13
2024-03-02T07:23:10.517Z,53.69
2024-03-02T07:24:14.742Z,54.27
2024-03-02T07:27:27.206Z,53.89
2024-03-02T07:28:29.574Z,53.63
2024-03-02T07:29:32.175Z,54.31
2024-03-02T07:30:34.980Z,54.03
2024-03-02T07:31:37.191Z,53.90
2024-03-02T07:32:39.524Z,53.71
2024-03-02T07:33:41.791Z,53.39
2024-03-02T07:34:43.908Z,53.62
2024-03-02T07:35:46.025Z,53.06
2024-03-02T07:36:48.162Z,54.04
2024-03-02T07:37:50.373Z,53.73
2024-03-02T07:38:52.555Z,54.24
2024-03-02T07:39:54.878Z,54.02
2024-03-02T07:40:57.432Z,53.68
2024-03-02T07:41:59.609Z,54.51
2024-03-02T07:43:01.918Z,53.88
2024-03-02T07:44:04.102Z,54.33
2024-03-02T07:45:06.935Z,53.44
2024-03-02T07:46:09.223Z,53.83
2024-03-02T07:47:11.219Z,54.18
2024-03-02T07:48:13.856Z,53.78
2024-03-02T07:49:16.077Z,54.76
2024-03-02T07:50:18.533Z,53.99
2024-03-02T07:51:20.536Z,54.24
2024-03-02T07:52:22.857Z,54.19
2024-03-02T07:53:24.998Z,54.75
2024-03-02T07:54:27.175Z,54.11
2024-03-02T07:55:29.260Z,54.66
2024-03-02T07:56:31.699Z,54.79
2024-03-02T07:57:33.851Z,54.71
2024-03-02T07:58:36.794Z,55.36
2024-03-02T07:59:38.912Z,55.17
2024-03-02T08:00:41.692Z,55.31
2024-03-02T08:01:44.028Z,55.46
2024-03-02T08:02:46.299Z,55.56
2024-03-02T08:03:52.303Z,55.79
2024-03-02T08:04:54.807Z,55.33
2024-03-02T08:05:56.957Z,55.80
2024-03-02T08:06:59.351Z,55.81
2024-03-02T08:08:01.584Z,55.82
2024-03-02T08:09:06.039Z,55.93
2024-03-02T08:10:08.836Z,55.75
2024-03-02T08:11:11.101Z,55.82
2024-03-02T08:12:13.115Z,55.22
2024-03-02T08:13:15.337Z,55.71
2024-03-02T08:14:17.583Z,55.20
2024-03-02T08:15:19.654Z,55.12
2024-03-02T08:16:23.498Z,55.66
2024-03-02T08:17:25.923Z,55.33
2024-03-02T08:18:28.047Z,55.03
2024-03-02T08:19:30.820Z,54.75
2024-03-02T08:20:32.924Z,54.97
2024-03-02T08:21:36.708Z,54.33
2024-03-02T08:22:39.227Z,54.28
2024-03-02T08:23:44.721Z,54.49
2024-03-02T08:24:47.298Z,53.75
2024-03-02T08:25:49.500Z,53.65
2024-03-02T08:26:51.585Z,53.76
2024-03-02T08:27:53.689Z,53.44
2024-03-02T08:28:55.833Z,53.01
2024-03-02T08:29:58.112Z,53.04
2024-03-02T08:31:00.448Z,52.88
2024-03-02T08:32:02.697Z,52.99
2024-03-02T08:33:05.174Z,52.83
2024-03-02T08:34:07.344Z,52.84
2024-03-02T08:35:09.635Z,52.59
2024-03-02T08:36:12.257Z,51.80
2024-03-02T08:37:14.529Z,52.30
2024-03-02T08:38:16.653Z,52.43
2024-03-02T08:39:20.921Z,52.35
2024-03-02T08:40:23.237Z,52.21
2024-03-02T08:41:25.435Z,51.38
2024-03-02T08:42:27.875Z,51.14
2024-03-02T08:43:29.894Z,51.32
2024-03-02T08:44:32.138Z,50.65
2024-03-02T08:45:36.269Z,50.67
2024-03-02T08:46:38.773Z,50.46
2024-03-02T08:47:40.966Z,50.70
2024-03-02T08:48:43.234Z,50.19
2024-03-02T08:49:45.265Z,50.02
2024-03-02T08:50:47.544Z,49.99
2024-03-02T08:51:56.285Z,49.14
2024-03-02T08:52:58.788Z,49.15
2024-03-02T08:54:01.032Z,49.65
2024-03-02T08:55:03.414Z,49.51
2024-03-02T08:56:06.700Z,50.18
2024-03-02T08:57:08.903Z,50.38
2024-03-02T08:58:11.038Z,51.21
2024-03-02T08:59:13.145Z,51.60
2024-03-02T09:00:15.489Z,51.00
2024-03-02T09:01:18.928Z,51.40
2024-03-02T09:02:21.051Z,52.05
2024-03-02T09:03:23.175Z,52.02
2024-03-02T09:04:27.110Z,51.61
2024-03-02T09:05:29.992Z,52.10
2024-03-02T09:06:32.130Z,51.59
2024-03-02T09:07:34.320Z,51.05
2024-03-02T09:08:37.633Z,51.93
2024-03-02T09:09:40.349Z,51.56
2024-03-02T09:10:42.596Z,52.10
2024-03-02T09:11:44.817Z,51.78
2024-03-02T09:12:46.823Z,51.82
2024-03-02T09:13:49.055Z,51.97
2024-03-02T09:14:51.066Z,51.78
2024-03-02T09:15:53.132Z,51.56
2024-03-02T09:16:55.421Z,52.05
2024-03-02T09:17:57.714Z,52.31
2024-03-02T09:18:59.849Z,52.15
2024-03-02T09:20:02.189Z,52.49
2024-03-02T09:21:04.424Z,52.86
2024-03-02T09:22:07.276Z,53.12
2024-03-02T09:23:09.897Z,53.37
2024-03-02T09:24:13.249Z,53.74
2024-03-02T09:25:17.511Z,53.43
2024-03-02T09:26:22.042Z,54.21
2024-03-02T09:27:24.091Z,53.81
2024-03-02T09:28:26.193Z,53.27
2024-03-02T09:29:28.364Z,53.46
2024-03-02T09:30:30.496Z,53.20
2024-03-02T09:31:32.439Z,53.49
2024-03-02T09:32:34.804Z,52.91
2024-03-02T09:33:36.914Z,52.97
2024-03-02T09:34:39.036Z,51.90
2024-03-02T09:35:41.182Z,52.09
2024-03-02T09:36:43.890Z,52.32
2024-03-02T09:37:45.967Z,52.58
2024-03-02T09:38:48.246Z,51.86
2024-03-02T09:39:50.251Z,51.77
2024-03-02T09:40:52.375Z,52.30
2024-03-02T09:41:55.066Z,52.35
2024-03-02T09:42:58.447Z,51.60
2024-03-02T09:44:01.134Z,51.66
2024-03-02T09:45:03.669Z,51.86
2024-03-02T09:46:06.288Z,51.89
2024-03-02T09:47:09.564Z,51.72
2024-03-02T09:48:11.819Z,51.65
2024-03-02T09:49:14.032Z,51.50
2024-03-02T09:50:16.237Z,51.78
2024-03-02T09:51:21.037Z,51.97
2024-03-02T09:52:24.694Z,51.55
2024-03-02T09:53:30.890Z,52.16
2024-03-02T09:54:33.081Z,51.82
2024-03-02T09:55:35.310Z,52.43
2024-03-02T09:56:37.417Z,52.61
2024-03-02T09:57:41.430Z,52.25
2024-03-02T09:58:45.343Z,51.99
2024-03-02T09:59:47.547Z,52.87
2024-03-02T10:00:50.831Z,53.37
2024-03-02T10:02:03.948Z,52.48
2024-03-02T10:03:06.708Z,52.45
2024-03-02T10:04:09.783Z,52.67
2024-03-02T10:05:13.317Z,53.07
2024-03-02T10:06:26.209Z,52.37
2024-03-02T10:07:28.652Z,52.55
2024-03-02T10:08:44.924Z,52.71
2024-03-02T10:09:47.817Z,52.91
2024-03-02T10:10:50.095Z,52.67
2024-03-02T10:11:52.210Z,52.39
2024-03-02T10:13:06.666Z,52.38
2024-03-02T10:14:09.745Z,53.09
2024-03-02T10:15:11.806Z,52.47
2024-03-02T10:16:14.142Z,52.67
2024-03-02T10:17:19.158Z,52.66
2024-03-02T10:18:30.610Z,53.07
2024-03-02T10:19:34.430Z,52.86
2024-03-02T10:20:37.680Z,52.63
2024-03-02T10:21:41.950Z,53.15
2024-03-02T10:22:44.052Z,52.48
2024-03-02T10:23:46.131Z,53.15
2024-03-02T10:24:50.301Z,52.80
2024-03-02T10:25:58.517Z,53.32
2024-03-02T10:27:01.048Z,53.08
2024-03-02T10:28:03.231Z,53.23
2024-03-02T10:29:05.377Z,53.73
2024-03-02T10:30:08.234Z,53.80
2024-03-02T10:31:11.156Z,53.38
2024-03-02T10:32:13.659Z,53.61
2024-03-02T10:33:15.967Z,52.69
2024-03-02T10:34:17.979Z,52.36
2024-03-02T10:35:21.665Z,52.75
2024-03-02T10:36:24.105Z,52.28
2024-03-02T10:37:26.223Z,52.28
2024-03-02T10:38:29.015Z,52.34
2024-03-02T10:39:32.797Z,52.51
2024-03-02T10:40:35.061Z,52.24
2024-03-02T10:41:38.849Z,52.00
2024-03-02T10:42:43.269Z,51.60
2024-03-02T10:43:46.257Z,52.57
2024-03-02T10:44:50.369Z,51.97
2024-03-02T10:45:54.181Z,51.52
2024-03-02T10:46:57.490Z,51.96
2024-03-02T10:48:02.043Z,51.68
2024-03-02T10:49:08.589Z,51.33
2024-03-02T10:50:11.880Z,51.86
2024-03-02T10:51:14.289Z,51.74
2024-03-02T10:52:16.434Z,51.75
2024-03-02T10:53:18.641Z,51.50
2024-03-02T10:54:27.124Z,51.38
2024-03-02T10:55:29.750Z,52.06
2024-03-02T10:56:40.440Z,51.97
2024-03-02T10:57:55.343Z,50.95
2024-03-02T10:59:18.697Z,50.91
2024-03-02T11:00:26.063Z,51.74
2024-03-02T11:01:30.625Z,50.77
2024-03-02T11:02:35.536Z,51.29
2024-03-02T11:03:40.500Z,50.79
2024-03-02T11:04:43.638Z,50.00
2024-03-02T11:05:47.245Z,51.18
2024-03-02T11:06:52.894Z,50.26
2024-03-02T11:08:04.229Z,50.49
2024-03-02T11:09:13.083Z,50.11
2024-03-02T11:10:16.198Z,51.19
2024-03-02T11:11:26.777Z,51.03
2024-03-02T11:12:33.188Z,50.73
2024-03-02T11:13:38.530Z,49.61
2024-03-02T11:14:47.541Z,49.64
2024-03-02T11:15:51.579Z,49.94
2024-03-02T11:16:55.379Z,50.50
2024-03-02T11:17:59.112Z,50.01
2024-03-02T11:19:01.777Z,49.04
2024-03-02T11:20:05.900Z,49.49
2024-03-02T11:21:08.686Z,48.71
2024-03-02T11:22:11.652Z,48.42
2024-03-02T11:23:13.680Z,48.58
2024-03-02T11:24:37.690Z,47.18
2024-03-02T11:25:41.114Z,47.60
2024-03-02T11:26:43.232Z,46.85
2024-03-02T11:27:49.316Z,47.03
2024-03-02T11:28:52.000Z,47.17
2024-03-02T11:29:54.005Z,47.12
2024-03-02T11:30:56.404Z,47.27
2024-03-02T11:32:00.753Z,46.49
2024-03-02T11:33:12.065Z,45.77
2024-03-02T11:34:35.519Z,46.00
2024-03-02T11:35:49.743Z,45.81
2024-03-02T11:36:52.578Z,46.10
2024-03-02T11:37:54.786Z,44.77
2024-03-02T11:38:57.548Z,44.92
2024-03-02T11:39:59.784Z,45.18
2024-03-02T11:41:10.261Z,44.98
2024-03-02T11:42:15.525Z,44.88
2024-03-02T11:43:17.928Z,44.95
2024-03-02T11:44:20.612Z,44.07
2024-03-02T11:45:29.179Z,44.03
2024-03-02T11:46:31.431Z,44.48
2024-03-02T11:47:36.656Z,44.02
2024-03-02T11:48:41.172Z,44.48
2024-03-02T11:49:47.057Z,44.29
2024-03-02T11:50:51.656Z,44.05
2024-03-02T11:52:03.101Z,44.23
2024-03-02T11:53:07.866Z,44.38
2024-03-02T11:54:11.092Z,44.22
2024-03-02T11:55:14.326Z,43.81
2024-03-02T11:56:18.357Z,44.00
2024-03-02T11:57:24.730Z,43.50
2024-03-02T11:58:28.949Z,44.25
2024-03-02T11:59:31.560Z,43.90
2024-03-02T12:00:33.693Z,43.51
2024-03-02T12:01:36.557Z,43.44
2024-03-02T12:02:40.138Z,43.63
2024-03-02T12:03:42.463Z,43.49
2024-03-02T12:04:44.885Z,43.02
2024-03-02T12:05:50.773Z,43.30
2024-03-02T12:07:03.614Z,42.98
2024-03-02T12:08:07.980Z,43.72
2024-03-02T12:09:13.508Z,43.12
2024-03-02T12:10:16.581Z,42.99
2024-03-02T12:11:18.740Z,43.40
2024-03-02T12:12:23.822Z,42.70
2024-03-02T12:13:26.060Z,43.27
2024-03-02T12:14:30.296Z,42.79
2024-03-02T12:15:34.923Z,43.41
2024-03-02T12:16:38.852Z,42.50
2024-03-02T12:17:41.179Z,43.26
2024-03-02T12:18:45.008Z,42.53
2024-03-02T12:19:47.429Z,42.73
2024-03-02T12:20:50.615Z,42.44
2024-03-02T12:21:53.332Z,42.41
2024-03-02T12:22:56.845Z,42.25
2024-03-02T12:23:59.184Z,42.73
2024-03-02T12:25:01.636Z,43.17
2024-03-02T12:26:04.013Z,43.17
2024-03-02T12:27:08.242Z,42.93
2024-03-02T12:28:10.495Z,42.54
2024-03-02T12:29:13.517Z,42.91
2024-03-02T12:30:15.725Z,43.44
2024-03-02T12:31:17.944Z,44.73
2024-03-02T12:32:20.038Z,44.34
2024-03-02T12:33:22.552Z,44.74
2024-03-02T12:34:25.182Z,46.12
2024-03-02T12:35:27.667Z,45.93
2024-03-02T12:36:29.672Z,45.53
2024-03-02T12:37:32.463Z,46.66
2024-03-02T12:38:34.446Z,46.02
2024-03-02T12:39:36.574Z,46.65
2024-03-02T12:40:38.795Z,46.38
2024-03-02T12:41:41.241Z,47.77
2024-03-02T12:42:43.422Z,47.88
2024-03-02T12:43:45.714Z,48.21
2024-03-02T12:44:47.720Z,48.47
2024-03-02T12:45:49.975Z,49.10
2024-03-02T12:46:54.934Z,48.43
2024-03-02T12:47:57.278Z,49.70
2024-03-02T12:49:00.612Z,49.74
2024-03-02T12:50:04.786Z,49.83
2024-03-02T12:51:06.998Z,49.86
2024-03-02T12:52:09.160Z,50.57
2024-03-02T12:53:16.920Z,51.44
2024-03-02T12:54:19.529Z,51.58
2024-03-02T12:55:26.279Z,51.60
2024-03-02T12:56:29.022Z,51.47
2024-03-02T12:57:35.536Z,51.65
2024-03-02T12:58:44.119Z,52.25
2024-03-02T12:59:49.507Z,52.49
2024-03-02T13:00:51.805Z,52.95
2024-03-02T13:01:55.081Z,52.46
2024-03-02T13:03:03.071Z,52.96
2024-03-02T13:04:05.443Z,53.65
2024-03-02T13:05:12.275Z,52.99
2024-03-02T13:06:14.488Z,53.54
2024-03-02T13:07:16.941Z,53.30
2024-03-02T13:08:19.037Z,53.03
2024-03-02T13:09:21.880Z,53.46
2024-03-02T13:10:24.005Z,54.04
2024-03-02T13:11:27.089Z,53.61
2024-03-02T13:12:29.477Z,53.97
2024-03-02T13:13:32.958Z,54.47
2024-03-02T13:14:36.389Z,55.09
2024-03-02T13:15:39.294Z,55.37
2024-03-02T13:16:47.380Z,55.11
2024-03-02T13:17:52.239Z,54.95
2024-03-02T13:18:54.409Z,54.69
2024-03-02T13:19:58.437Z,55.34
2024-03-02T13:21:00.812Z,55.10
2024-03-02T13:22:06.329Z,54.75
2024-03-02T13:23:08.563Z,55.48
2024-03-02T13:24:10.769Z,55.21
2024-03-02T13:25:13.346Z,55.36
2024-03-02T13:26:15.675Z,55.81
2024-03-02T13:27:20.793Z,55.79
2024-03-02T13:28:23.204Z,56.14
2024-03-02T13:29:25.759Z,56.70
2024-03-02T13:30:27.948Z,56.80
2024-03-02T13:31:30.227Z,56.68
2024-03-02T13:32:32.544Z,57.44
2024-03-02T13:33:34.776Z,57.20
2024-03-02T13:34:38.366Z,57.92
2024-03-02T13:35:40.355Z,57.73
2024-03-02T13:36:42.516Z,58.13
2024-03-02T13:37:44.624Z,57.95
2024-03-02T13:38:46.829Z,58.69